This is the latest recevied weather packets stored in our database for station/object YO2MAS-13. If no packets are shown the sender has not sent any weather packets the latest 10 day(s).
| Time | Temp. | Humidity | Pressure | Rain* | Wind** | Luminosity | Snow |
|---|---|---|---|---|---|---|---|
| 1777136392 | 22.78° C | 40% | 1014.3 hPa | - | - | - | - |
| 1777135492 | 23.89° C | 37% | 1014.2 hPa | - | - | - | - |
| 1777134592 | 23.89° C | 36% | 1014.2 hPa | - | - | - | - |
| 1777134339 | 23.89° C | 36% | 1014.3 hPa | - | - | - | - |
| 1777133692 | 23.89° C | 36% | 1014.3 hPa | - | - | - | - |
| 1777132792 | 24.44° C | 34% | 1014.3 hPa | - | - | - | - |
| 1777131892 | 24.44° C | 34% | 1014.5 hPa | - | - | - | - |
| 1777131044 | 25° C | 33% | 1014.5 hPa | - | - | - | - |
| 1777130992 | 25° C | 33% | 1014.5 hPa | - | - | - | - |
| 1777130092 | 25.56° C | 32% | 1014.4 hPa | - | - | - | - |
| 1777129192 | 25.56° C | 31% | 1014.4 hPa | - | - | - | - |
| 1777128292 | 24.44° C | 31% | 1014.6 hPa | - | - | - | - |
| 1777127392 | 26.11° C | 30% | 1014.6 hPa | - | - | - | - |
| 1777126492 | 25° C | 31% | 1014.7 hPa | - | - | - | - |
| 1777125592 | 25.56° C | 31% | 1014.7 hPa | - | - | - | - |
| 1777124692 | 25° C | 31% | 1014.9 hPa | - | - | - | - |
| 1777123794 | 23.89° C | 33% | 1015 hPa | - | - | - | - |
| 1777122892 | 24.44° C | 32% | 1015.1 hPa | - | - | - | - |
| 1777121992 | 23.89° C | 35% | 1015.3 hPa | - | - | - | - |
| 1777121092 | 24.44° C | 35% | 1015.4 hPa | - | - | - | - |
| 1777120188 | 24.44° C | 35% | 1015.6 hPa | - | - | - | - |
| 1777119288 | 22.78° C | 36% | 1015.8 hPa | - | - | - | - |
| 1777118388 | 23.33° C | 37% | 1015.9 hPa | - | - | - | - |
| 1777117488 | 23.89° C | 37% | 1016.1 hPa | - | - | - | - |
| 1777116588 | 23.89° C | 36% | 1016.3 hPa | - | - | - | - |
* Rain since midnight (hover to see other rain measurements)
** Current wind speed in m/s (hover to see current wind gust speed)